Main page
METAR-TAF:

METAR-TAF

Airports :

Oil platform

Heimdal, Norway

latitude: 59-34-12N, longitude: 2-13-48E, elevation: 10 m

Current weather observation

The report was made 33 minutes ago, at 23:20 UTC
Wind 3 kt from the North, varying between Northwest and Northeast
Temperature 3°C
Humidity 65%
Pressure 1009 hPa
Visibility 10 km or more

METAR: ENHM 272320Z AUTO 01003KT 310V040 9999NDV NCD 03/M03 Q1009 W08/S4

Time: 00:53 (23:53 UTC)


TAF: missing

Weather observations and forecasts of more than 4000 airports (METAR and TAF reports).

The available stations are represented by yellow and red dots on the map.

Hover mouse over dot to see the name of the station.

Then click to see weather observations and forecasts.

To change the map : click on the green buttons with a black cross to zoom in, on the green button with a dash to zoom out, or on the green arrows for adjacent maps.


METAR-TAF: